Time;durP1;ratioP1;P1;durP2;ratioP2;P2;SDS_P1;SDS_P2;PMS_P1;PMS_P2;Temp;Humidity;BMP_temperature;BMP_pressure;BME280_temperature;BME280_humidity;BME280_pressure;Samples;Min_cycle;Max_cycle;Signal;HPM_P1;HPM_P2
2022/12/29 00:01:24;;;;;;;;;;;22.50;99.90;;;;;;5037129;28;19909;-67
2022/12/29 00:03:51;;;;;;;;;;;22.60;99.90;;;;;;5040716;28;19982;-66
2022/12/29 00:06:17;;;;;;;;;;;22.80;99.90;;;;;;5056875;28;19912;-67
2022/12/29 00:08:44;;;;;;;;;;;22.90;99.90;;;;;;5052030;28;19908;-67
2022/12/29 00:11:12;;;;;;;;;;;23.00;99.90;;;;;;5035747;28;19919;-66
2022/12/29 00:16:24;;;;;;;;;;;23.40;99.90;;;;;;5038967;28;19990;-66
2022/12/29 00:18:50;;;;;;;;;;;23.50;99.90;;;;;;5037518;28;20416;-66
2022/12/29 00:35:11;;;;;;;;;;;23.00;99.90;;;;;;4928624;28;3643917;-69
2022/12/29 00:45:57;;;;;;;;;;;23.00;99.90;;;;;;5046201;28;19916;-67
2022/12/29 00:51:08;;;;;;;;;;;23.30;99.90;;;;;;5042016;28;20442;-65
2022/12/29 00:53:35;;;;;;;;;;;23.40;99.90;;;;;;5044946;28;20596;-67
2022/12/29 00:56:02;;;;;;;;;;;23.60;99.90;;;;;;5043721;28;19951;-67
2022/12/29 00:58:29;;;;;;;;;;;23.70;99.90;;;;;;5045757;28;19954;-66
2022/12/29 01:01:05;;;;;;;;;;;23.80;99.90;;;;;;5046205;28;20003;-66
2022/12/29 01:03:32;;;;;;;;;;;23.90;99.90;;;;;;5042203;28;19924;-66
2022/12/29 01:06:02;;;;;;;;;;;23.80;99.90;;;;;;5047154;28;19909;-66
2022/12/29 01:08:29;;;;;;;;;;;23.80;99.90;;;;;;5045865;28;19913;-67
2022/12/29 01:11:02;;;;;;;;;;;23.80;99.90;;;;;;5044035;28;20261;-66
2022/12/29 01:13:29;;;;;;;;;;;23.80;99.90;;;;;;5043602;28;19908;-66
2022/12/29 01:15:56;;;;;;;;;;;23.70;99.90;;;;;;5045457;28;19952;-65
2022/12/29 01:18:22;;;;;;;;;;;23.70;99.90;;;;;;5043768;28;19912;-67
2022/12/29 01:20:49;;;;;;;;;;;23.60;99.90;;;;;;5044814;28;19909;-65
2022/12/29 01:23:16;;;;;;;;;;;23.60;99.90;;;;;;5046834;28;19917;-66
2022/12/29 01:25:42;;;;;;;;;;;23.50;99.90;;;;;;5043429;28;20385;-66
2022/12/29 01:28:11;;;;;;;;;;;23.50;99.90;;;;;;5045504;28;19919;-67
2022/12/29 01:30:37;;;;;;;;;;;23.60;99.90;;;;;;5044630;28;20011;-65
2022/12/29 01:33:04;;;;;;;;;;;23.70;99.90;;;;;;5043810;28;20052;-67
2022/12/29 01:35:31;;;;;;;;;;;23.70;99.90;;;;;;5044061;28;20015;-65
2022/12/29 01:37:58;;;;;;;;;;;23.70;99.90;;;;;;5044943;28;19985;-67
2022/12/29 01:40:24;;;;;;;;;;;23.90;99.90;;;;;;5040234;28;19998;-68
2022/12/29 01:42:51;;;;;;;;;;;24.00;99.90;;;;;;5043831;28;19921;-66
2022/12/29 01:45:18;;;;;;;;;;;24.10;99.90;;;;;;5044718;28;19915;-67
2022/12/29 01:47:49;;;;;;;;;;;24.00;99.90;;;;;;5044542;28;19912;-68
2022/12/29 01:50:19;;;;;;;;;;;24.00;99.90;;;;;;5045671;28;19948;-66
2022/12/29 01:52:51;;;;;;;;;;;24.10;99.90;;;;;;5041858;28;20049;-68
2022/12/29 01:55:18;;;;;;;;;;;24.20;99.90;;;;;;5043902;28;19989;-67
2022/12/29 01:57:46;;;;;;;;;;;24.30;99.80;;;;;;5048580;28;19909;-66
2022/12/29 02:00:13;;;;;;;;;;;24.30;99.90;;;;;;5056572;28;19915;-68
2022/12/29 02:02:43;;;;;;;;;;;24.60;99.90;;;;;;5054864;28;19921;-66
2022/12/29 02:05:18;;;;;;;;;;;24.70;99.60;;;;;;5055523;28;19909;-68
2022/12/29 02:07:45;;;;;;;;;;;24.70;99.10;;;;;;5054854;28;19963;-68
2022/12/29 02:10:12;;;;;;;;;;;24.60;98.90;;;;;;5054795;28;19909;-67
2022/12/29 02:12:39;;;;;;;;;;;24.50;99.40;;;;;;5046270;28;20263;-68
2022/12/29 02:15:06;;;;;;;;;;;24.50;99.80;;;;;;5043221;28;19928;-69
2022/12/29 02:17:57;;;;;;;;;;;24.40;99.70;;;;;;5040508;28;19943;-65
2022/12/29 02:20:32;;;;;;;;;;;24.30;99.60;;;;;;5046889;28;19909;-67
2022/12/29 02:23:17;;;;;;;;;;;24.20;99.90;;;;;;5044575;28;20015;-67
2022/12/29 02:25:53;;;;;;;;;;;24.30;99.90;;;;;;5045118;28;20058;-65
2022/12/29 02:28:22;;;;;;;;;;;24.30;99.90;;;;;;5047712;28;19912;-67
2022/12/29 02:30:49;;;;;;;;;;;24.50;99.90;;;;;;5050971;28;19916;-66
2022/12/29 02:33:27;;;;;;;;;;;24.70;99.90;;;;;;5051022;28;19916;-67
2022/12/29 02:36:10;;;;;;;;;;;24.90;99.30;;;;;;5048465;28;19927;-66
2022/12/29 02:38:36;;;;;;;;;;;25.30;99.00;;;;;;5053870;28;20368;-67
2022/12/29 02:41:22;;;;;;;;;;;25.40;98.80;;;;;;5054154;28;19912;-64
2022/12/29 02:43:51;;;;;;;;;;;25.60;98.20;;;;;;5055023;28;20139;-66
2022/12/29 02:46:21;;;;;;;;;;;25.50;98.30;;;;;;5054607;28;20324;-66
2022/12/29 02:49:08;;;;;;;;;;;25.60;98.20;;;;;;5054309;28;19951;-65
2022/12/29 02:51:47;;;;;;;;;;;25.60;98.30;;;;;;5051173;28;19912;-65
2022/12/29 02:56:58;;;;;;;;;;;25.40;98.10;;;;;;5054952;28;19915;-68
2022/12/29 02:59:25;;;;;;;;;;;25.20;98.40;;;;;;5053966;28;19908;-64
2022/12/29 03:02:20;;;;;;;;;;;25.10;98.50;;;;;;5053315;28;21096;-66
2022/12/29 03:05:05;;;;;;;;;;;24.90;98.80;;;;;;5055222;28;19908;-64
2022/12/29 03:07:55;;;;;;;;;;;24.90;98.90;;;;;;5052461;28;19908;-65
2022/12/29 03:10:34;;;;;;;;;;;25.10;98.80;;;;;;5051643;28;19908;-66
2022/12/29 03:16:04;;;;;;;;;;;25.30;98.70;;;;;;5054257;28;20035;-66
2022/12/29 03:18:34;;;;;;;;;;;25.50;98.20;;;;;;5053289;28;20245;-68
2022/12/29 03:21:08;;;;;;;;;;;25.50;98.20;;;;;;5055604;28;19938;-67
2022/12/29 03:23:36;;;;;;;;;;;25.50;98.40;;;;;;5054146;28;19920;-67
2022/12/29 03:26:04;;;;;;;;;;;25.20;98.90;;;;;;5056953;28;19915;-66
2022/12/29 03:28:39;;;;;;;;;;;25.30;98.90;;;;;;5057651;28;19943;-68
2022/12/29 03:31:07;;;;;;;;;;;25.10;99.00;;;;;;5059737;28;19915;-67
2022/12/29 03:33:35;;;;;;;;;;;25.30;98.90;;;;;;5057092;28;19909;-67
2022/12/29 03:36:04;;;;;;;;;;;25.30;98.90;;;;;;5059681;28;19920;-68
2022/12/29 03:38:53;;;;;;;;;;;25.30;98.60;;;;;;5056946;28;19912;-67
2022/12/29 03:41:22;;;;;;;;;;;25.10;99.10;;;;;;5059348;28;19908;-66
2022/12/29 03:43:49;;;;;;;;;;;25.10;99.10;;;;;;5058841;28;20556;-67
2022/12/29 03:46:15;;;;;;;;;;;25.10;99.00;;;;;;5057946;28;19955;-66
2022/12/29 03:48:42;;;;;;;;;;;25.20;99.10;;;;;;5057792;28;19915;-67
2022/12/29 03:51:09;;;;;;;;;;;25.10;99.10;;;;;;5059835;28;19916;-67
2022/12/29 03:53:39;;;;;;;;;;;25.10;99.00;;;;;;5057502;28;20007;-68
2022/12/29 03:56:06;;;;;;;;;;;25.10;99.20;;;;;;5059489;28;19936;-66
2022/12/29 03:58:33;;;;;;;;;;;25.20;99.20;;;;;;5056537;28;19915;-67
2022/12/29 04:00:59;;;;;;;;;;;25.30;99.00;;;;;;5059448;28;19957;-65
2022/12/29 04:03:26;;;;;;;;;;;25.30;99.10;;;;;;5057852;28;19917;-66
2022/12/29 04:05:53;;;;;;;;;;;25.50;99.00;;;;;;5059002;28;19908;-65
2022/12/29 04:08:19;;;;;;;;;;;25.50;99.50;;;;;;5057791;28;19909;-67
2022/12/29 04:10:48;;;;;;;;;;;25.60;99.20;;;;;;5057983;28;19909;-66
2022/12/29 04:13:14;;;;;;;;;;;25.50;98.50;;;;;;5058696;28;19919;-66
2022/12/29 04:15:42;;;;;;;;;;;25.50;98.80;;;;;;5057314;28;19952;-67
2022/12/29 04:18:09;;;;;;;;;;;25.60;98.50;;;;;;5059375;28;20425;-67
2022/12/29 04:23:20;;;;;;;;;;;25.70;98.60;;;;;;5057058;28;19924;-66
2022/12/29 04:25:47;;;;;;;;;;;25.60;98.40;;;;;;5051800;28;20006;-66
2022/12/29 04:28:14;;;;;;;;;;;25.50;98.60;;;;;;5054926;28;20385;-66
2022/12/29 04:30:41;;;;;;;;;;;25.50;98.70;;;;;;5055865;28;20005;-67
2022/12/29 04:33:08;;;;;;;;;;;25.50;98.70;;;;;;5058214;28;19955;-66
2022/12/29 04:35:35;;;;;;;;;;;25.40;98.50;;;;;;5055831;28;19932;-68
2022/12/29 04:38:01;;;;;;;;;;;25.10;99.30;;;;;;5057261;28;19962;-66
2022/12/29 04:40:28;;;;;;;;;;;25.10;99.40;;;;;;5057691;28;19916;-66
2022/12/29 04:42:55;;;;;;;;;;;25.10;99.30;;;;;;5056065;28;20385;-66
2022/12/29 04:45:22;;;;;;;;;;;25.00;99.30;;;;;;5039546;28;19908;-64
2022/12/29 04:47:50;;;;;;;;;;;25.00;99.40;;;;;;5056502;28;20292;-66
2022/12/29 04:50:16;;;;;;;;;;;24.70;99.60;;;;;;5058742;28;19915;-65
2022/12/29 04:52:43;;;;;;;;;;;24.50;99.90;;;;;;5055270;28;20178;-68
2022/12/29 04:55:10;;;;;;;;;;;24.60;99.90;;;;;;5041389;28;19912;-67
2022/12/29 04:57:37;;;;;;;;;;;24.60;99.90;;;;;;5034927;28;20487;-64
2022/12/29 05:00:04;;;;;;;;;;;24.50;99.90;;;;;;5037700;28;19909;-67
2022/12/29 05:02:31;;;;;;;;;;;24.50;99.90;;;;;;5042121;28;19920;-65
2022/12/29 05:04:57;;;;;;;;;;;24.50;99.90;;;;;;5048680;28;19942;-66
2022/12/29 05:07:24;;;;;;;;;;;24.50;99.90;;;;;;5037425;28;19913;-67
2022/12/29 05:09:51;;;;;;;;;;;24.60;99.90;;;;;;5037686;28;19980;-67
2022/12/29 05:12:18;;;;;;;;;;;24.80;99.90;;;;;;5039662;28;19958;-68
2022/12/29 05:14:45;;;;;;;;;;;24.70;99.60;;;;;;5044290;28;19908;-68
2022/12/29 05:17:11;;;;;;;;;;;24.60;99.60;;;;;;5042448;28;19962;-68
2022/12/29 05:19:38;;;;;;;;;;;24.50;99.80;;;;;;5057673;28;19908;-67
2022/12/29 05:22:04;;;;;;;;;;;24.50;99.90;;;;;;5056530;28;19927;-69
2022/12/29 05:24:31;;;;;;;;;;;24.50;99.90;;;;;;5049591;28;19909;-67
2022/12/29 05:26:58;;;;;;;;;;;24.50;99.90;;;;;;5034266;28;19916;-68
2022/12/29 05:29:24;;;;;;;;;;;24.40;99.90;;;;;;5036757;28;20296;-68
2022/12/29 05:31:51;;;;;;;;;;;24.20;99.90;;;;;;5035276;28;20391;-68
2022/12/29 05:34:18;;;;;;;;;;;24.30;99.90;;;;;;5036219;28;20015;-66
2022/12/29 05:36:44;;;;;;;;;;;24.10;99.90;;;;;;5035257;28;20000;-68
2022/12/29 05:39:11;;;;;;;;;;;24.00;99.90;;;;;;5036559;28;19916;-66
2022/12/29 05:41:38;;;;;;;;;;;24.00;99.90;;;;;;5036862;28;19909;-68
2022/12/29 05:44:04;;;;;;;;;;;24.10;99.90;;;;;;5035277;28;19963;-69
2022/12/29 05:46:31;;;;;;;;;;;24.10;99.90;;;;;;5036114;28;19909;-65
2022/12/29 05:48:57;;;;;;;;;;;24.20;99.90;;;;;;5034487;28;20423;-66
2022/12/29 05:51:24;;;;;;;;;;;24.20;99.90;;;;;;5036801;28;19909;-67
2022/12/29 05:53:51;;;;;;;;;;;24.10;99.90;;;;;;5034660;28;19921;-66
2022/12/29 05:56:17;;;;;;;;;;;24.00;99.90;;;;;;5036097;28;20637;-66
2022/12/29 05:58:44;;;;;;;;;;;24.00;99.90;;;;;;5036484;28;19965;-68
2022/12/29 06:01:10;;;;;;;;;;;24.20;99.90;;;;;;5035319;28;19916;-67
2022/12/29 06:03:37;;;;;;;;;;;24.20;99.90;;;;;;5035988;28;20185;-67
2022/12/29 06:06:04;;;;;;;;;;;24.10;99.90;;;;;;5034143;28;19908;-64
2022/12/29 06:08:30;;;;;;;;;;;24.00;99.90;;;;;;5043657;28;20361;-66
2022/12/29 06:10:57;;;;;;;;;;;24.00;99.90;;;;;;5051937;28;19912;-67
2022/12/29 06:13:24;;;;;;;;;;;23.90;99.90;;;;;;5036201;28;20320;-67
2022/12/29 06:15:50;;;;;;;;;;;23.90;99.90;;;;;;5043430;28;19924;-66
2022/12/29 06:18:20;;;;;;;;;;;23.80;99.90;;;;;;5046431;28;19920;-67
2022/12/29 06:20:47;;;;;;;;;;;23.70;99.90;;;;;;5055343;28;19952;-64
2022/12/29 06:23:14;;;;;;;;;;;23.40;99.90;;;;;;5054977;28;20125;-66
2022/12/29 06:25:40;;;;;;;;;;;23.30;99.90;;;;;;5049351;28;19942;-66
2022/12/29 06:28:10;;;;;;;;;;;23.30;99.90;;;;;;5034679;28;19916;-64
2022/12/29 06:30:37;;;;;;;;;;;23.30;99.90;;;;;;5036226;28;19909;-65
2022/12/29 06:33:04;;;;;;;;;;;23.20;99.90;;;;;;5033726;28;19909;-65
2022/12/29 06:35:31;;;;;;;;;;;23.20;99.90;;;;;;5034933;28;20031;-67
2022/12/29 06:37:57;;;;;;;;;;;23.10;99.90;;;;;;5034153;28;20223;-66
2022/12/29 06:40:24;;;;;;;;;;;23.20;99.90;;;;;;5034931;28;20396;-66
2022/12/29 06:42:51;;;;;;;;;;;23.20;99.90;;;;;;5035134;28;19921;-67
2022/12/29 06:45:18;;;;;;;;;;;23.20;99.90;;;;;;5039542;28;20294;-67
2022/12/29 06:47:45;;;;;;;;;;;23.10;99.90;;;;;;5053106;28;19919;-66
2022/12/29 06:50:12;;;;;;;;;;;22.90;99.90;;;;;;5038435;28;19980;-67
2022/12/29 06:52:38;;;;;;;;;;;22.90;99.90;;;;;;5050692;28;19917;-66
2022/12/29 06:55:05;;;;;;;;;;;22.90;99.90;;;;;;5042883;28;19970;-67
2022/12/29 06:57:31;;;;;;;;;;;22.80;99.90;;;;;;5050855;28;19973;-66
2022/12/29 06:59:58;;;;;;;;;;;22.80;99.90;;;;;;5034128;28;20284;-66
2022/12/29 07:02:25;;;;;;;;;;;22.70;99.90;;;;;;5039607;28;19917;-67
2022/12/29 07:04:52;;;;;;;;;;;22.60;99.90;;;;;;5040141;28;20372;-65
2022/12/29 07:07:20;;;;;;;;;;;22.70;99.90;;;;;;5037561;28;20387;-66
2022/12/29 07:09:46;;;;;;;;;;;22.70;99.90;;;;;;5039268;28;19909;-66
2022/12/29 07:12:13;;;;;;;;;;;22.50;99.90;;;;;;5039569;28;19921;-65
2022/12/29 07:14:40;;;;;;;;;;;22.50;99.90;;;;;;5044274;28;20294;-67
2022/12/29 07:17:07;;;;;;;;;;;22.50;99.90;;;;;;5055421;28;20666;-66
2022/12/29 07:19:33;;;;;;;;;;;22.40;99.90;;;;;;5058353;28;19955;-66
2022/12/29 07:22:01;;;;;;;;;;;22.30;99.90;;;;;;5058790;28;19935;-67
2022/12/29 07:24:27;;;;;;;;;;;22.30;99.90;;;;;;5058757;28;19957;-67
2022/12/29 07:26:54;;;;;;;;;;;22.20;99.90;;;;;;5052280;28;20289;-66
2022/12/29 07:29:20;;;;;;;;;;;22.10;99.90;;;;;;5037622;28;19962;-66
2022/12/29 07:31:47;;;;;;;;;;;22.10;99.90;;;;;;5038849;28;19913;-67
2022/12/29 07:34:14;;;;;;;;;;;22.10;99.90;;;;;;5037501;28;20078;-67
2022/12/29 07:36:40;;;;;;;;;;;22.00;99.90;;;;;;5052616;28;20369;-67
2022/12/29 07:39:07;;;;;;;;;;;22.00;99.90;;;;;;5056872;28;19908;-65
2022/12/29 07:41:34;;;;;;;;;;;21.90;99.90;;;;;;5058064;28;19992;-68
2022/12/29 07:44:01;;;;;;;;;;;21.90;99.90;;;;;;5058402;28;19913;-65
2022/12/29 07:46:28;;;;;;;;;;;22.00;99.90;;;;;;5058427;28;19908;-67
2022/12/29 07:48:54;;;;;;;;;;;22.00;99.90;;;;;;5057607;28;19939;-67
2022/12/29 07:51:21;;;;;;;;;;;21.90;99.90;;;;;;5050350;28;20569;-66
2022/12/29 07:53:47;;;;;;;;;;;22.00;99.90;;;;;;5047776;28;19919;-66
2022/12/29 07:56:14;;;;;;;;;;;21.90;99.90;;;;;;5045683;28;20258;-66
2022/12/29 07:58:42;;;;;;;;;;;22.00;99.90;;;;;;5044865;28;19951;-66
2022/12/29 08:01:08;;;;;;;;;;;22.00;99.90;;;;;;5051369;28;19939;-66
2022/12/29 08:03:36;;;;;;;;;;;22.00;99.90;;;;;;5047810;28;19917;-65
2022/12/29 08:06:02;;;;;;;;;;;21.90;99.90;;;;;;5057901;28;19916;-65
2022/12/29 08:08:29;;;;;;;;;;;21.90;99.90;;;;;;5056575;28;19912;-66
2022/12/29 08:10:56;;;;;;;;;;;21.70;99.90;;;;;;5057499;28;19920;-66
2022/12/29 08:13:23;;;;;;;;;;;21.70;99.90;;;;;;5056700;28;19908;-67
2022/12/29 08:15:49;;;;;;;;;;;21.60;99.90;;;;;;5057037;28;19935;-67
2022/12/29 08:18:16;;;;;;;;;;;21.60;99.90;;;;;;5056577;28;19915;-67
2022/12/29 08:20:42;;;;;;;;;;;21.60;99.90;;;;;;5057088;28;19915;-65
2022/12/29 08:23:10;;;;;;;;;;;21.60;99.90;;;;;;5057295;28;19916;-65
2022/12/29 08:25:36;;;;;;;;;;;21.70;99.90;;;;;;5057200;28;19909;-65
2022/12/29 08:28:03;;;;;;;;;;;21.70;99.90;;;;;;5056669;28;19908;-67
2022/12/29 08:30:30;;;;;;;;;;;21.60;99.90;;;;;;5055040;28;19909;-65
2022/12/29 08:32:56;;;;;;;;;;;21.50;99.90;;;;;;5056553;28;19912;-66
2022/12/29 08:35:23;;;;;;;;;;;21.50;99.90;;;;;;5055915;28;20289;-66
2022/12/29 08:37:50;;;;;;;;;;;21.50;99.90;;;;;;5056989;28;20174;-67
2022/12/29 08:40:16;;;;;;;;;;;21.50;99.90;;;;;;5056887;28;19958;-67
2022/12/29 08:42:43;;;;;;;;;;;21.50;99.90;;;;;;5057557;28;19923;-67
2022/12/29 08:45:10;;;;;;;;;;;21.30;99.90;;;;;;5058016;28;20280;-66
2022/12/29 08:47:37;;;;;;;;;;;21.40;99.90;;;;;;5057734;28;19909;-68
2022/12/29 08:50:04;;;;;;;;;;;21.40;99.90;;;;;;5057008;28;19909;-67
2022/12/29 08:52:30;;;;;;;;;;;21.30;99.90;;;;;;5056425;28;20114;-68
2022/12/29 08:54:57;;;;;;;;;;;21.30;99.90;;;;;;5055542;28;19915;-67
2022/12/29 08:57:24;;;;;;;;;;;21.20;99.90;;;;;;5056373;28;20288;-67
2022/12/29 08:59:51;;;;;;;;;;;21.20;99.90;;;;;;5055733;28;20659;-67
2022/12/29 09:02:18;;;;;;;;;;;21.10;99.90;;;;;;5056480;28;19920;-67
2022/12/29 09:04:45;;;;;;;;;;;21.10;99.90;;;;;;5057668;28;19909;-63
2022/12/29 09:07:11;;;;;;;;;;;21.20;99.90;;;;;;5058233;28;19931;-68
2022/12/29 09:09:38;;;;;;;;;;;21.20;99.90;;;;;;5056226;28;19965;-66
2022/12/29 09:12:05;;;;;;;;;;;21.10;99.90;;;;;;5056643;28;19909;-65
2022/12/29 09:14:31;;;;;;;;;;;21.10;99.90;;;;;;5055975;28;19908;-66
2022/12/29 09:19:43;;;;;;;;;;;21.00;99.90;;;;;;5057273;28;19930;-66
2022/12/29 09:22:09;;;;;;;;;;;21.00;99.90;;;;;;5056567;28;20345;-66
2022/12/29 09:24:36;;;;;;;;;;;21.00;99.90;;;;;;5054755;28;20182;-65
2022/12/29 09:27:03;;;;;;;;;;;21.00;99.90;;;;;;5056727;28;19952;-65
2022/12/29 09:29:29;;;;;;;;;;;21.00;99.90;;;;;;5055671;28;19908;-66
2022/12/29 09:31:56;;;;;;;;;;;21.00;99.90;;;;;;5054583;28;20110;-65
2022/12/29 09:34:23;;;;;;;;;;;21.00;99.90;;;;;;5055606;28;19974;-65
2022/12/29 09:36:49;;;;;;;;;;;21.00;99.90;;;;;;5057195;28;19908;-67
2022/12/29 09:39:16;;;;;;;;;;;21.00;99.90;;;;;;5057294;28;19908;-67
2022/12/29 09:41:50;;;;;;;;;;;21.00;99.90;;;;;;5055582;28;20353;-68
2022/12/29 09:44:23;;;;;;;;;;;21.00;99.90;;;;;;5057001;28;19912;-67
2022/12/29 09:46:51;;;;;;;;;;;21.00;99.90;;;;;;5056829;28;19934;-67
2022/12/29 09:49:28;;;;;;;;;;;21.10;99.90;;;;;;5057010;28;19913;-67
2022/12/29 09:51:57;;;;;;;;;;;21.10;99.90;;;;;;5055905;28;19909;-67
2022/12/29 09:54:33;;;;;;;;;;;21.10;99.90;;;;;;5056006;28;19916;-67
2022/12/29 09:57:00;;;;;;;;;;;21.10;99.90;;;;;;5055700;28;19912;-66
2022/12/29 09:59:32;;;;;;;;;;;21.10;99.90;;;;;;5055834;28;19916;-66
2022/12/29 10:02:22;;;;;;;;;;;21.10;99.90;;;;;;5055422;28;19931;-67
2022/12/29 10:04:48;;;;;;;;;;;21.20;99.90;;;;;;5055080;28;19995;-67
2022/12/29 10:07:38;;;;;;;;;;;21.10;99.90;;;;;;5055715;28;20149;-68
2022/12/29 10:10:04;;;;;;;;;;;21.20;99.90;;;;;;5055223;28;20106;-67
2022/12/29 10:12:31;;;;;;;;;;;21.10;99.90;;;;;;5054463;28;19916;-67
2022/12/29 10:15:03;;;;;;;;;;;21.10;99.90;;;;;;5056074;28;20285;-67
2022/12/29 10:17:48;;;;;;;;;;;21.00;99.90;;;;;;5055453;28;20339;-67
2022/12/29 10:20:18;;;;;;;;;;;21.00;99.90;;;;;;5055458;28;20106;-67
2022/12/29 10:22:47;;;;;;;;;;;21.00;99.90;;;;;;5054469;28;19916;-66
2022/12/29 10:25:19;;;;;;;;;;;21.00;99.90;;;;;;5055579;28;20177;-67
2022/12/29 10:27:49;;;;;;;;;;;21.00;99.90;;;;;;5053066;28;20010;-67
2022/12/29 10:30:16;;;;;;;;;;;21.00;99.90;;;;;;5056095;28;20370;-66
2022/12/29 10:32:52;;;;;;;;;;;20.90;99.90;;;;;;5054900;28;19943;-66
2022/12/29 10:35:21;;;;;;;;;;;20.90;99.90;;;;;;5057377;28;19921;-66
2022/12/29 10:37:48;;;;;;;;;;;21.00;99.90;;;;;;5058637;28;20602;-66
2022/12/29 10:40:15;;;;;;;;;;;20.90;99.90;;;;;;5058310;28;19999;-67
2022/12/29 10:42:45;;;;;;;;;;;21.00;99.90;;;;;;5058610;28;19916;-66
2022/12/29 10:45:14;;;;;;;;;;;20.90;99.90;;;;;;5059476;28;19999;-65
2022/12/29 10:47:47;;;;;;;;;;;20.90;99.90;;;;;;5057425;28;19913;-66
2022/12/29 10:50:14;;;;;;;;;;;20.90;99.90;;;;;;5059236;28;19908;-66
2022/12/29 10:52:41;;;;;;;;;;;20.90;99.90;;;;;;5058779;28;20273;-66
2022/12/29 10:55:11;;;;;;;;;;;20.90;99.90;;;;;;5059042;28;19909;-69
2022/12/29 10:57:44;;;;;;;;;;;20.90;99.90;;;;;;5058522;28;20110;-67
2022/12/29 11:00:16;;;;;;;;;;;20.80;99.90;;;;;;5059274;28;19919;-67
2022/12/29 11:02:45;;;;;;;;;;;20.80;99.90;;;;;;5058738;28;19955;-67
2022/12/29 11:05:18;;;;;;;;;;;20.80;99.90;;;;;;5058356;28;20231;-67
2022/12/29 11:07:47;;;;;;;;;;;20.80;99.90;;;;;;5058019;28;19915;-67
2022/12/29 11:10:18;;;;;;;;;;;20.80;99.90;;;;;;5058648;28;20353;-67
2022/12/29 11:13:05;;;;;;;;;;;20.80;99.90;;;;;;5058454;28;19936;-68
2022/12/29 11:15:42;;;;;;;;;;;20.80;99.90;;;;;;5059010;28;19955;-67
2022/12/29 11:18:24;;;;;;;;;;;20.80;99.90;;;;;;5057725;28;20064;-66
2022/12/29 11:21:00;;;;;;;;;;;20.80;99.90;;;;;;5058012;28;19908;-68
2022/12/29 11:23:34;;;;;;;;;;;20.80;99.90;;;;;;5058425;28;19916;-67
2022/12/29 11:26:10;;;;;;;;;;;20.80;99.90;;;;;;5058634;28;20269;-69
2022/12/29 11:28:37;;;;;;;;;;;20.80;99.90;;;;;;5059453;28;20011;-67
2022/12/29 11:31:06;;;;;;;;;;;20.80;99.90;;;;;;5057377;28;19974;-66
2022/12/29 11:33:34;;;;;;;;;;;20.80;99.90;;;;;;5059075;28;20352;-67
2022/12/29 11:36:03;;;;;;;;;;;20.80;99.90;;;;;;5058282;28;20048;-67
2022/12/29 11:38:50;;;;;;;;;;;20.80;99.90;;;;;;5056687;28;20413;-67
2022/12/29 11:41:26;;;;;;;;;;;20.80;99.90;;;;;;5058156;28;19908;-67
2022/12/29 11:43:53;;;;;;;;;;;20.80;99.90;;;;;;5057802;28;19924;-67
2022/12/29 11:46:23;;;;;;;;;;;20.80;99.90;;;;;;5057699;28;20324;-66
2022/12/29 11:48:50;;;;;;;;;;;20.70;99.90;;;;;;5057716;28;19919;-69
2022/12/29 11:51:24;;;;;;;;;;;20.70;99.90;;;;;;5058063;28;20448;-66
2022/12/29 11:53:52;;;;;;;;;;;20.60;99.90;;;;;;5057563;28;20314;-65
2022/12/29 11:56:34;;;;;;;;;;;20.60;99.90;;;;;;5057837;28;19940;-68
2022/12/29 11:59:21;;;;;;;;;;;20.60;99.90;;;;;;5057700;28;20071;-64
2022/12/29 12:01:48;;;;;;;;;;;20.70;99.90;;;;;;5056961;28;20191;-67
2022/12/29 12:04:16;;;;;;;;;;;20.70;99.90;;;;;;5058621;28;20128;-66
2022/12/29 12:06:48;;;;;;;;;;;20.70;99.90;;;;;;5058522;28;19915;-68
2022/12/29 12:09:19;;;;;;;;;;;20.70;99.90;;;;;;5058436;28;20174;-66
2022/12/29 12:11:46;;;;;;;;;;;20.80;99.90;;;;;;5058255;28;19962;-66
2022/12/29 12:14:25;;;;;;;;;;;20.70;99.90;;;;;;5058531;28;20274;-66
2022/12/29 12:16:52;;;;;;;;;;;20.70;99.90;;;;;;5056838;28;20114;-65
2022/12/29 12:19:28;;;;;;;;;;;20.70;99.90;;;;;;5057607;28;19996;-65
2022/12/29 12:22:01;;;;;;;;;;;20.80;99.90;;;;;;5056976;28;19953;-65
2022/12/29 12:24:37;;;;;;;;;;;20.80;99.90;;;;;;5057800;28;19913;-67
2022/12/29 12:27:09;;;;;;;;;;;20.70;99.90;;;;;;5056942;28;20038;-65
2022/12/29 12:29:59;;;;;;;;;;;20.70;99.90;;;;;;5057443;28;20083;-66
2022/12/29 12:32:29;;;;;;;;;;;20.80;99.90;;;;;;5056767;28;20346;-64
2022/12/29 12:34:56;;;;;;;;;;;20.70;99.90;;;;;;5056371;28;19964;-66
2022/12/29 12:37:39;;;;;;;;;;;20.70;99.90;;;;;;5057422;28;19908;-65
2022/12/29 12:40:14;;;;;;;;;;;20.80;99.90;;;;;;5056797;28;20102;-63
2022/12/29 12:42:49;;;;;;;;;;;20.70;99.90;;;;;;5057387;28;19923;-66
2022/12/29 12:45:28;;;;;;;;;;;20.70;99.90;;;;;;5058257;28;19915;-65
2022/12/29 12:48:18;;;;;;;;;;;20.70;99.90;;;;;;5056979;28;20349;-67
2022/12/29 12:51:03;;;;;;;;;;;20.70;99.90;;;;;;5058046;28;20000;-68
2022/12/29 12:53:39;;;;;;;;;;;20.70;99.90;;;;;;5056996;28;19913;-68
2022/12/29 12:56:21;;;;;;;;;;;20.60;99.90;;;;;;5056487;28;20347;-67
2022/12/29 12:58:48;;;;;;;;;;;20.60;99.90;;;;;;5057010;28;20007;-67
2022/12/29 13:01:14;;;;;;;;;;;20.70;99.90;;;;;;5056508;28;19909;-66
2022/12/29 13:04:02;;;;;;;;;;;20.70;99.90;;;;;;5053164;28;19987;-67
2022/12/29 13:06:35;;;;;;;;;;;20.60;99.90;;;;;;5044131;28;20166;-68
2022/12/29 13:09:24;;;;;;;;;;;20.60;99.90;;;;;;5045312;28;20353;-65
2022/12/29 13:12:04;;;;;;;;;;;20.60;99.90;;;;;;5055368;28;20003;-66
2022/12/29 13:14:49;;;;;;;;;;;20.60;99.90;;;;;;5056176;28;20380;-67
2022/12/29 13:17:40;;;;;;;;;;;20.70;99.90;;;;;;5056170;28;19923;-66
2022/12/29 13:20:28;;;;;;;;;;;20.60;99.90;;;;;;5056162;28;19944;-66
2022/12/29 13:23:10;;;;;;;;;;;20.60;99.90;;;;;;5056865;28;19972;-66
2022/12/29 13:25:46;;;;;;;;;;;20.60;99.90;;;;;;5055944;28;19909;-67
2022/12/29 13:28:36;;;;;;;;;;;20.60;99.90;;;;;;5056503;28;19979;-66
2022/12/29 13:31:15;;;;;;;;;;;20.60;99.90;;;;;;5056529;28;19909;-66
2022/12/29 13:33:42;;;;;;;;;;;20.60;99.90;;;;;;5056176;28;19966;-66
2022/12/29 13:36:26;;;;;;;;;;;20.60;99.90;;;;;;5056504;28;19915;-65
2022/12/29 13:39:02;;;;;;;;;;;20.60;99.90;;;;;;5056623;28;19982;-65
2022/12/29 13:41:34;;;;;;;;;;;20.50;99.90;;;;;;5056834;28;20020;-66
2022/12/29 13:44:03;;;;;;;;;;;20.50;99.90;;;;;;5056315;28;19917;-65
2022/12/29 13:46:40;;;;;;;;;;;20.50;99.90;;;;;;5056972;28;20310;-66
2022/12/29 13:49:18;;;;;;;;;;;20.50;99.90;;;;;;5055919;28;20453;-66
2022/12/29 13:51:49;;;;;;;;;;;20.50;99.90;;;;;;5035965;28;19913;-67
2022/12/29 13:54:15;;;;;;;;;;;20.40;99.90;;;;;;5035978;28;19909;-67
2022/12/29 13:56:42;;;;;;;;;;;20.50;99.90;;;;;;5035639;28;19913;-65
2022/12/29 13:59:18;;;;;;;;;;;20.50;99.90;;;;;;5035837;28;19909;-65
2022/12/29 14:01:57;;;;;;;;;;;20.50;99.90;;;;;;5035362;28;19909;-67
2022/12/29 14:04:28;;;;;;;;;;;20.50;99.90;;;;;;5035293;28;20803;-65
2022/12/29 14:07:02;;;;;;;;;;;20.50;99.90;;;;;;5043369;28;20056;-69
2022/12/29 14:09:28;;;;;;;;;;;20.60;99.90;;;;;;5056488;28;20751;-69
2022/12/29 14:11:55;;;;;;;;;;;20.50;99.90;;;;;;5055564;28;19908;-68
2022/12/29 14:14:23;;;;;;;;;;;20.50;99.90;;;;;;5055267;28;19908;-68
2022/12/29 14:16:50;;;;;;;;;;;20.50;99.90;;;;;;5055565;28;19908;-67
2022/12/29 14:19:19;;;;;;;;;;;20.50;99.90;;;;;;5055471;28;20015;-68
2022/12/29 14:22:12;;;;;;;;;;;20.40;99.90;;;;;;5055400;28;19995;-64
2022/12/29 14:24:41;;;;;;;;;;;20.50;99.90;;;;;;5054661;28;19921;-66
2022/12/29 14:27:10;;;;;;;;;;;20.50;99.90;;;;;;5056361;28;19916;-67
2022/12/29 14:29:40;;;;;;;;;;;20.40;99.90;;;;;;5056016;28;19947;-67
2022/12/29 14:32:22;;;;;;;;;;;20.40;99.90;;;;;;5056890;28;19908;-65
2022/12/29 14:34:49;;;;;;;;;;;20.40;99.90;;;;;;5054687;28;19927;-68
2022/12/29 14:37:29;;;;;;;;;;;20.30;99.90;;;;;;5056029;28;20284;-65
2022/12/29 14:40:13;;;;;;;;;;;20.30;99.90;;;;;;5055053;28;19973;-66
2022/12/29 14:42:41;;;;;;;;;;;20.30;99.90;;;;;;5055435;28;20024;-67
2022/12/29 14:45:14;;;;;;;;;;;20.20;99.90;;;;;;5055646;28;19908;-66
2022/12/29 14:47:44;;;;;;;;;;;20.30;99.90;;;;;;5054990;28;20003;-66
2022/12/29 14:50:14;;;;;;;;;;;20.20;99.90;;;;;;5056123;28;20250;-65
2022/12/29 14:52:43;;;;;;;;;;;20.20;99.90;;;;;;5056295;28;20316;-67
2022/12/29 14:55:16;;;;;;;;;;;20.30;99.90;;;;;;5055766;28;19909;-62
2022/12/29 14:57:50;;;;;;;;;;;20.30;99.90;;;;;;5056089;28;19916;-66
2022/12/29 15:00:26;;;;;;;;;;;20.30;99.90;;;;;;5054514;28;19916;-66
2022/12/29 15:03:04;;;;;;;;;;;20.20;99.90;;;;;;5056819;28;20003;-64
2022/12/29 15:05:46;;;;;;;;;;;20.20;99.90;;;;;;5055178;28;19916;-66
2022/12/29 15:08:13;;;;;;;;;;;20.20;99.90;;;;;;5054540;28;19909;-67
2022/12/29 15:10:48;;;;;;;;;;;20.30;99.90;;;;;;5055501;28;19908;-67
2022/12/29 15:13:16;;;;;;;;;;;20.20;99.90;;;;;;5054424;28;19991;-66